sensor_id;sensor_type;location;lat;lon;timestamp;temperature;humidity
14709;DHT22;7445;50.774;4.944;2023-08-30T06:12:09;15.00;1.00
14709;DHT22;7445;50.774;4.944;2023-08-30T06:14:35;15.10;1.00
14709;DHT22;7445;50.774;4.944;2023-08-30T06:17:01;15.10;99.90
14709;DHT22;7445;50.774;4.944;2023-08-30T06:19:26;15.10;1.00
14709;DHT22;7445;50.774;4.944;2023-08-30T06:21:52;15.10;1.00
14709;DHT22;7445;50.774;4.944;2023-08-30T06:24:17;15.10;1.00
14709;DHT22;7445;50.774;4.944;2023-08-30T06:26:43;15.10;99.90
14709;DHT22;7445;50.774;4.944;2023-08-30T06:29:09;15.10;1.00
14709;DHT22;7445;50.774;4.944;2023-08-30T06:31:34;15.20;1.00
14709;DHT22;7445;50.774;4.944;2023-08-30T06:34:00;15.20;99.90
14709;DHT22;7445;50.774;4.944;2023-08-30T06:36:25;15.30;99.90
14709;DHT22;7445;50.774;4.944;2023-08-30T06:38:51;15.40;99.90
14709;DHT22;7445;50.774;4.944;2023-08-30T06:41:17;15.50;99.90
14709;DHT22;7445;50.774;4.944;2023-08-30T06:43:42;15.50;99.90
14709;DHT22;7445;50.774;4.944;2023-08-30T06:46:08;15.50;99.90
14709;DHT22;7445;50.774;4.944;2023-08-30T06:48:34;15.50;99.90
14709;DHT22;7445;50.774;4.944;2023-08-30T06:50:59;15.50;99.90
14709;DHT22;7445;50.774;4.944;2023-08-30T06:53:26;15.50;99.90
14709;DHT22;7445;50.774;4.944;2023-08-30T06:56:01;15.60;99.90
14709;DHT22;7445;50.774;4.944;2023-08-30T06:58:27;15.60;15.00
14709;DHT22;7445;50.774;4.944;2023-08-30T07:00:53;15.70;1.00
14709;DHT22;7445;50.774;4.944;2023-08-30T07:03:19;15.70;1.00
14709;DHT22;7445;50.774;4.944;2023-08-30T07:05:45;15.60;1.00
14709;DHT22;7445;50.774;4.944;2023-08-30T07:08:14;15.60;1.00
14709;DHT22;7445;50.774;4.944;2023-08-30T07:10:40;15.60;1.00
14709;DHT22;7445;50.774;4.944;2023-08-30T07:13:06;15.60;1.00
14709;DHT22;7445;50.774;4.944;2023-08-30T07:15:36;15.70;1.00
14709;DHT22;7445;50.774;4.944;2023-08-30T07:18:02;15.70;1.00
14709;DHT22;7445;50.774;4.944;2023-08-30T07:20:29;15.90;1.00
14709;DHT22;7445;50.774;4.944;2023-08-30T07:22:55;16.00;1.00
14709;DHT22;7445;50.774;4.944;2023-08-30T07:25:20;16.10;1.00
14709;DHT22;7445;50.774;4.944;2023-08-30T07:27:46;16.20;1.00
14709;DHT22;7445;50.774;4.944;2023-08-30T07:30:12;16.20;99.90
14709;DHT22;7445;50.774;4.944;2023-08-30T07:32:38;16.20;99.90
14709;DHT22;7445;50.774;4.944;2023-08-30T07:35:04;16.10;1.00
14709;DHT22;7445;50.774;4.944;2023-08-30T07:37:30;16.10;1.00
14709;DHT22;7445;50.774;4.944;2023-08-30T07:39:56;16.10;1.00
14709;DHT22;7445;50.774;4.944;2023-08-30T07:42:21;16.10;99.90
14709;DHT22;7445;50.774;4.944;2023-08-30T07:44:47;16.10;99.90
14709;DHT22;7445;50.774;4.944;2023-08-30T07:47:13;16.10;99.90
14709;DHT22;7445;50.774;4.944;2023-08-30T07:49:38;16.00;1.00
14709;DHT22;7445;50.774;4.944;2023-08-30T07:52:04;15.90;1.00
14709;DHT22;7445;50.774;4.944;2023-08-30T07:54:31;15.90;99.90
14709;DHT22;7445;50.774;4.944;2023-08-30T07:56:56;15.80;99.90
14709;DHT22;7445;50.774;4.944;2023-08-30T07:59:22;15.80;99.90
14709;DHT22;7445;50.774;4.944;2023-08-30T08:01:48;15.70;1.00
14709;DHT22;7445;50.774;4.944;2023-08-30T08:04:13;15.70;1.00
14709;DHT22;7445;50.774;4.944;2023-08-30T08:06:39;15.60;1.00
14709;DHT22;7445;50.774;4.944;2023-08-30T08:09:05;15.60;1.00
14709;DHT22;7445;50.774;4.944;2023-08-30T08:11:32;15.70;99.90
14709;DHT22;7445;50.774;4.944;2023-08-30T08:13:58;15.70;99.90
14709;DHT22;7445;50.774;4.944;2023-08-30T08:16:24;15.70;99.90
14709;DHT22;7445;50.774;4.944;2023-08-30T08:18:50;15.70;99.90
14709;DHT22;7445;50.774;4.944;2023-08-30T08:21:17;15.80;99.90
14709;DHT22;7445;50.774;4.944;2023-08-30T08:23:43;15.90;99.90
14709;DHT22;7445;50.774;4.944;2023-08-30T08:26:09;15.90;99.90
14709;DHT22;7445;50.774;4.944;2023-08-30T08:28:34;16.00;99.90
14709;DHT22;7445;50.774;4.944;2023-08-30T08:31:00;15.90;99.90
14709;DHT22;7445;50.774;4.944;2023-08-30T08:33:26;16.00;99.90
14709;DHT22;7445;50.774;4.944;2023-08-30T08:35:52;15.80;99.90
14709;DHT22;7445;50.774;4.944;2023-08-30T08:38:17;15.90;99.90
14709;DHT22;7445;50.774;4.944;2023-08-30T08:40:43;15.80;99.90
14709;DHT22;7445;50.774;4.944;2023-08-30T08:43:10;15.80;1.00
14709;DHT22;7445;50.774;4.944;2023-08-30T08:45:36;15.90;1.00
14709;DHT22;7445;50.774;4.944;2023-08-30T08:48:03;15.90;1.00
14709;DHT22;7445;50.774;4.944;2023-08-30T08:50:30;15.90;1.00
14709;DHT22;7445;50.774;4.944;2023-08-30T08:52:56;15.90;1.00
14709;DHT22;7445;50.774;4.944;2023-08-30T08:55:22;15.80;1.00
14709;DHT22;7445;50.774;4.944;2023-08-30T08:57:48;15.90;1.00
14709;DHT22;7445;50.774;4.944;2023-08-30T09:00:14;15.90;1.00
14709;DHT22;7445;50.774;4.944;2023-08-30T09:02:42;16.00;1.00
14709;DHT22;7445;50.774;4.944;2023-08-30T09:05:10;16.10;1.00
14709;DHT22;7445;50.774;4.944;2023-08-30T09:07:36;16.10;1.00
14709;DHT22;7445;50.774;4.944;2023-08-30T09:10:02;16.20;1.00
14709;DHT22;7445;50.774;4.944;2023-08-30T09:12:28;16.20;1.00
14709;DHT22;7445;50.774;4.944;2023-08-30T09:14:57;16.20;1.00
14709;DHT22;7445;50.774;4.944;2023-08-30T09:17:23;16.20;1.00
14709;DHT22;7445;50.774;4.944;2023-08-30T09:19:49;16.30;1.00
14709;DHT22;7445;50.774;4.944;2023-08-30T09:22:15;16.20;1.00
14709;DHT22;7445;50.774;4.944;2023-08-30T09:24:41;16.30;1.00
14709;DHT22;7445;50.774;4.944;2023-08-30T09:27:09;16.30;1.00
14709;DHT22;7445;50.774;4.944;2023-08-30T09:29:34;16.30;1.00
14709;DHT22;7445;50.774;4.944;2023-08-30T09:32:01;16.40;27.00
14709;DHT22;7445;50.774;4.944;2023-08-30T09:34:26;16.40;1.00
14709;DHT22;7445;50.774;4.944;2023-08-30T09:36:53;16.40;1.00
14709;DHT22;7445;50.774;4.944;2023-08-30T09:39:19;16.40;1.00
14709;DHT22;7445;50.774;4.944;2023-08-30T09:41:47;16.50;1.00
14709;DHT22;7445;50.774;4.944;2023-08-30T09:44:18;16.60;1.00
14709;DHT22;7445;50.774;4.944;2023-08-30T09:49:22;16.50;1.00
14709;DHT22;7445;50.774;4.944;2023-08-30T09:51:49;16.50;99.90
14709;DHT22;7445;50.774;4.944;2023-08-30T09:54:22;16.60;1.00
14709;DHT22;7445;50.774;4.944;2023-08-30T09:56:48;16.60;99.90
14709;DHT22;7445;50.774;4.944;2023-08-30T09:59:18;16.70;1.00
14709;DHT22;7445;50.774;4.944;2023-08-30T10:01:47;16.70;1.00
14709;DHT22;7445;50.774;4.944;2023-08-30T10:04:19;16.80;1.00
14709;DHT22;7445;50.774;4.944;2023-08-30T10:06:45;16.80;1.00
14709;DHT22;7445;50.774;4.944;2023-08-30T10:09:12;16.80;1.00
14709;DHT22;7445;50.774;4.944;2023-08-30T10:11:39;16.80;1.00
14709;DHT22;7445;50.774;4.944;2023-08-30T10:14:05;16.80;99.90
14709;DHT22;7445;50.774;4.944;2023-08-30T10:16:44;16.90;1.00
14709;DHT22;7445;50.774;4.944;2023-08-30T10:21:45;17.10;99.90
14709;DHT22;7445;50.774;4.944;2023-08-30T10:24:14;17.40;99.90
14709;DHT22;7445;50.774;4.944;2023-08-30T10:26:43;17.60;1.00
14709;DHT22;7445;50.774;4.944;2023-08-30T10:29:11;17.70;1.00
14709;DHT22;7445;50.774;4.944;2023-08-30T10:31:38;17.90;1.00
14709;DHT22;7445;50.774;4.944;2023-08-30T10:34:16;18.10;1.00
14709;DHT22;7445;50.774;4.944;2023-08-30T10:36:43;18.30;1.00
14709;DHT22;7445;50.774;4.944;2023-08-30T10:39:13;18.40;1.00
14709;DHT22;7445;50.774;4.944;2023-08-30T10:41:57;18.20;1.00
14709;DHT22;7445;50.774;4.944;2023-08-30T10:44:23;18.00;99.90
14709;DHT22;7445;50.774;4.944;2023-08-30T10:46:53;17.90;99.90
14709;DHT22;7445;50.774;4.944;2023-08-30T10:49:21;17.70;99.90
14709;DHT22;7445;50.774;4.944;2023-08-30T10:51:57;17.60;1.00
14709;DHT22;7445;50.774;4.944;2023-08-30T10:54:24;17.50;1.00
14709;DHT22;7445;50.774;4.944;2023-08-30T10:56:57;17.60;1.00
14709;DHT22;7445;50.774;4.944;2023-08-30T10:59:27;17.50;99.90
14709;DHT22;7445;50.774;4.944;2023-08-30T11:01:53;17.50;99.90
14709;DHT22;7445;50.774;4.944;2023-08-30T11:04:20;17.40;99.90
14709;DHT22;7445;50.774;4.944;2023-08-30T11:06:48;17.40;99.90
14709;DHT22;7445;50.774;4.944;2023-08-30T11:09:16;17.30;1.00
14709;DHT22;7445;50.774;4.944;2023-08-30T11:11:47;17.30;1.00
14709;DHT22;7445;50.774;4.944;2023-08-30T11:14:13;17.30;1.00
14709;DHT22;7445;50.774;4.944;2023-08-30T11:16:40;17.20;1.00
14709;DHT22;7445;50.774;4.944;2023-08-30T11:19:07;17.20;1.00
14709;DHT22;7445;50.774;4.944;2023-08-30T11:21:41;17.10;63.90
14709;DHT22;7445;50.774;4.944;2023-08-30T11:24:08;17.00;1.00
14709;DHT22;7445;50.774;4.944;2023-08-30T11:26:34;17.00;1.00
14709;DHT22;7445;50.774;4.944;2023-08-30T11:29:09;17.10;53.70
14709;DHT22;7445;50.774;4.944;2023-08-30T11:31:36;17.30;1.00
14709;DHT22;7445;50.774;4.944;2023-08-30T11:34:02;17.40;1.00
14709;DHT22;7445;50.774;4.944;2023-08-30T11:36:32;17.50;1.00
14709;DHT22;7445;50.774;4.944;2023-08-30T11:39:00;17.60;99.90
14709;DHT22;7445;50.774;4.944;2023-08-30T11:41:26;17.80;99.90
14709;DHT22;7445;50.774;4.944;2023-08-30T11:43:53;17.80;1.00
14709;DHT22;7445;50.774;4.944;2023-08-30T11:46:20;17.90;69.40
14709;DHT22;7445;50.774;4.944;2023-08-30T11:48:50;18.00;1.00
14709;DHT22;7445;50.774;4.944;2023-08-30T11:51:18;18.00;1.00
14709;DHT22;7445;50.774;4.944;2023-08-30T11:53:48;17.90;1.00
14709;DHT22;7445;50.774;4.944;2023-08-30T11:56:36;17.80;18.90
14709;DHT22;7445;50.774;4.944;2023-08-30T11:59:21;17.70;1.00
14709;DHT22;7445;50.774;4.944;2023-08-30T12:02:22;17.80;1.00
14709;DHT22;7445;50.774;4.944;2023-08-30T12:04:50;18.00;1.00
14709;DHT22;7445;50.774;4.944;2023-08-30T12:07:25;18.10;35.50
14709;DHT22;7445;50.774;4.944;2023-08-30T12:09:52;18.20;93.10
14709;DHT22;7445;50.774;4.944;2023-08-30T12:12:19;18.30;1.00
14709;DHT22;7445;50.774;4.944;2023-08-30T12:14:45;18.40;1.00
14709;DHT22;7445;50.774;4.944;2023-08-30T12:17:11;18.60;1.00
14709;DHT22;7445;50.774;4.944;2023-08-30T12:19:37;18.60;99.90
14709;DHT22;7445;50.774;4.944;2023-08-30T12:22:06;18.70;99.90
14709;DHT22;7445;50.774;4.944;2023-08-30T12:24:45;18.90;99.90
14709;DHT22;7445;50.774;4.944;2023-08-30T12:27:11;19.20;99.90
14709;DHT22;7445;50.774;4.944;2023-08-30T12:29:37;19.50;1.00
14709;DHT22;7445;50.774;4.944;2023-08-30T12:32:03;19.60;1.00
14709;DHT22;7445;50.774;4.944;2023-08-30T12:34:29;19.60;1.00
14709;DHT22;7445;50.774;4.944;2023-08-30T12:36:55;19.60;99.90
14709;DHT22;7445;50.774;4.944;2023-08-30T12:39:21;19.60;1.00
14709;DHT22;7445;50.774;4.944;2023-08-30T12:41:47;19.60;1.00
14709;DHT22;7445;50.774;4.944;2023-08-30T12:44:12;19.60;1.00
14709;DHT22;7445;50.774;4.944;2023-08-30T12:46:38;19.50;99.90
14709;DHT22;7445;50.774;4.944;2023-08-30T12:49:04;19.30;99.90
14709;DHT22;7445;50.774;4.944;2023-08-30T12:51:29;19.20;1.00
14709;DHT22;7445;50.774;4.944;2023-08-30T12:53:56;19.10;1.00
14709;DHT22;7445;50.774;4.944;2023-08-30T12:56:21;18.90;99.90
14709;DHT22;7445;50.774;4.944;2023-08-30T12:58:47;18.90;1.00
14709;DHT22;7445;50.774;4.944;2023-08-30T13:01:13;18.90;1.00
14709;DHT22;7445;50.774;4.944;2023-08-30T13:03:38;18.80;1.00
14709;DHT22;7445;50.774;4.944;2023-08-30T13:06:04;18.90;99.90
14709;DHT22;7445;50.774;4.944;2023-08-30T13:08:30;19.10;1.00
14709;DHT22;7445;50.774;4.944;2023-08-30T13:10:59;19.00;1.00
14709;DHT22;7445;50.774;4.944;2023-08-30T13:13:25;18.90;1.00
14709;DHT22;7445;50.774;4.944;2023-08-30T13:15:51;18.80;1.00
14709;DHT22;7445;50.774;4.944;2023-08-30T13:18:16;18.70;99.90
14709;DHT22;7445;50.774;4.944;2023-08-30T13:20:43;18.80;1.00
14709;DHT22;7445;50.774;4.944;2023-08-30T13:23:09;19.10;99.90
14709;DHT22;7445;50.774;4.944;2023-08-30T13:25:38;19.40;99.90
14709;DHT22;7445;50.774;4.944;2023-08-30T13:28:04;19.80;99.90
14709;DHT22;7445;50.774;4.944;2023-08-30T13:30:30;19.90;99.90
14709;DHT22;7445;50.774;4.944;2023-08-30T13:32:56;19.90;1.00
14709;DHT22;7445;50.774;4.944;2023-08-30T13:35:21;19.70;1.00
14709;DHT22;7445;50.774;4.944;2023-08-30T13:37:47;19.60;1.00
14709;DHT22;7445;50.774;4.944;2023-08-30T13:40:13;19.50;1.00
14709;DHT22;7445;50.774;4.944;2023-08-30T13:42:39;19.40;99.90
14709;DHT22;7445;50.774;4.944;2023-08-30T13:45:05;19.50;1.00
14709;DHT22;7445;50.774;4.944;2023-08-30T13:47:31;19.80;1.00
14709;DHT22;7445;50.774;4.944;2023-08-30T13:49:57;20.30;99.90
14709;DHT22;7445;50.774;4.944;2023-08-30T13:52:25;20.60;99.90
14709;DHT22;7445;50.774;4.944;2023-08-30T13:54:51;21.00;99.90
14709;DHT22;7445;50.774;4.944;2023-08-30T13:57:17;21.00;1.00
14709;DHT22;7445;50.774;4.944;2023-08-30T13:59:43;20.80;1.00
14709;DHT22;7445;50.774;4.944;2023-08-30T14:02:08;20.30;99.90
14709;DHT22;7445;50.774;4.944;2023-08-30T14:04:34;20.30;1.00
14709;DHT22;7445;50.774;4.944;2023-08-30T14:07:02;20.00;1.00
14709;DHT22;7445;50.774;4.944;2023-08-30T14:09:29;20.10;1.00
14709;DHT22;7445;50.774;4.944;2023-08-30T14:11:54;20.00;1.00
14709;DHT22;7445;50.774;4.944;2023-08-30T14:14:20;20.00;1.00
14709;DHT22;7445;50.774;4.944;2023-08-30T14:16:46;19.90;99.90
14709;DHT22;7445;50.774;4.944;2023-08-30T14:19:15;20.00;92.40
14709;DHT22;7445;50.774;4.944;2023-08-30T14:21:41;20.10;91.60
14709;DHT22;7445;50.774;4.944;2023-08-30T14:24:06;20.10;1.00
14709;DHT22;7445;50.774;4.944;2023-08-30T14:26:32;20.00;1.00
14709;DHT22;7445;50.774;4.944;2023-08-30T14:28:58;20.10;1.00
14709;DHT22;7445;50.774;4.944;2023-08-30T14:31:23;20.20;1.00
14709;DHT22;7445;50.774;4.944;2023-08-30T14:33:54;20.00;35.40
14709;DHT22;7445;50.774;4.944;2023-08-30T14:36:21;20.20;47.40
14709;DHT22;7445;50.774;4.944;2023-08-30T14:38:47;20.50;1.00
14709;DHT22;7445;50.774;4.944;2023-08-30T14:41:12;20.70;1.00
14709;DHT22;7445;50.774;4.944;2023-08-30T14:43:41;21.10;1.00
14709;DHT22;7445;50.774;4.944;2023-08-30T14:46:07;21.50;99.90
14709;DHT22;7445;50.774;4.944;2023-08-30T14:48:33;21.60;99.90
14709;DHT22;7445;50.774;4.944;2023-08-30T14:50:59;21.80;99.90
14709;DHT22;7445;50.774;4.944;2023-08-30T14:53:25;22.00;99.90
14709;DHT22;7445;50.774;4.944;2023-08-30T14:55:52;22.10;99.90
14709;DHT22;7445;50.774;4.944;2023-08-30T14:58:18;21.90;99.90
14709;DHT22;7445;50.774;4.944;2023-08-30T15:00:44;21.60;1.00
14709;DHT22;7445;50.774;4.944;2023-08-30T15:03:10;21.30;99.90
14709;DHT22;7445;50.774;4.944;2023-08-30T15:05:35;21.00;1.00
14709;DHT22;7445;50.774;4.944;2023-08-30T15:08:01;20.60;99.90
14709;DHT22;7445;50.774;4.944;2023-08-30T15:10:27;20.40;80.10
14709;DHT22;7445;50.774;4.944;2023-08-30T15:12:53;20.50;99.90
14709;DHT22;7445;50.774;4.944;2023-08-30T15:15:19;20.50;15.50
14709;DHT22;7445;50.774;4.944;2023-08-30T15:17:44;20.20;99.90
14709;DHT22;7445;50.774;4.944;2023-08-30T15:20:10;19.70;1.00
14709;DHT22;7445;50.774;4.944;2023-08-30T15:22:36;19.40;1.00
14709;DHT22;7445;50.774;4.944;2023-08-30T15:25:02;19.40;1.00
14709;DHT22;7445;50.774;4.944;2023-08-30T15:27:29;19.20;1.00
14709;DHT22;7445;50.774;4.944;2023-08-30T15:29:54;19.10;1.00
14709;DHT22;7445;50.774;4.944;2023-08-30T15:32:22;19.20;1.00
14709;DHT22;7445;50.774;4.944;2023-08-30T15:34:49;19.20;99.90
14709;DHT22;7445;50.774;4.944;2023-08-30T15:37:14;19.10;1.00
14709;DHT22;7445;50.774;4.944;2023-08-30T15:39:40;19.00;1.00
14709;DHT22;7445;50.774;4.944;2023-08-30T15:42:06;19.20;1.00
14709;DHT22;7445;50.774;4.944;2023-08-30T15:44:32;19.60;1.00
14709;DHT22;7445;50.774;4.944;2023-08-30T15:46:57;19.80;1.00
14709;DHT22;7445;50.774;4.944;2023-08-30T15:49:23;20.00;99.90
14709;DHT22;7445;50.774;4.944;2023-08-30T15:51:49;20.20;99.90
14709;DHT22;7445;50.774;4.944;2023-08-30T15:54:14;20.00;1.00
14709;DHT22;7445;50.774;4.944;2023-08-30T15:56:41;19.80;99.90
14709;DHT22;7445;50.774;4.944;2023-08-30T15:59:09;19.60;99.90
14709;DHT22;7445;50.774;4.944;2023-08-30T16:01:34;19.50;1.00
14709;DHT22;7445;50.774;4.944;2023-08-30T16:04:00;19.40;99.90
14709;DHT22;7445;50.774;4.944;2023-08-30T16:06:26;19.30;99.90
14709;DHT22;7445;50.774;4.944;2023-08-30T16:08:51;19.30;1.00
14709;DHT22;7445;50.774;4.944;2023-08-30T16:11:17;19.10;99.90
14709;DHT22;7445;50.774;4.944;2023-08-30T16:13:43;19.10;99.90
14709;DHT22;7445;50.774;4.944;2023-08-30T16:16:09;19.20;1.00
14709;DHT22;7445;50.774;4.944;2023-08-30T16:18:34;19.20;99.90
14709;DHT22;7445;50.774;4.944;2023-08-30T16:21:00;19.00;1.00
14709;DHT22;7445;50.774;4.944;2023-08-30T16:23:25;18.90;99.90
14709;DHT22;7445;50.774;4.944;2023-08-30T16:25:56;18.80;51.00
14709;DHT22;7445;50.774;4.944;2023-08-30T16:28:22;18.90;1.00
14709;DHT22;7445;50.774;4.944;2023-08-30T16:30:48;18.90;1.00
14709;DHT22;7445;50.774;4.944;2023-08-30T16:33:13;19.10;99.90
14709;DHT22;7445;50.774;4.944;2023-08-30T16:35:43;19.20;1.00
14709;DHT22;7445;50.774;4.944;2023-08-30T16:38:11;18.90;99.90
14709;DHT22;7445;50.774;4.944;2023-08-30T16:40:36;18.90;99.90
14709;DHT22;7445;50.774;4.944;2023-08-30T16:43:02;18.90;99.90
14709;DHT22;7445;50.774;4.944;2023-08-30T16:45:28;18.70;1.00
14709;DHT22;7445;50.774;4.944;2023-08-30T16:47:54;18.60;1.00
14709;DHT22;7445;50.774;4.944;2023-08-30T16:50:19;18.50;1.00
14709;DHT22;7445;50.774;4.944;2023-08-30T16:52:45;18.50;1.00
14709;DHT22;7445;50.774;4.944;2023-08-30T16:55:10;18.40;1.00
14709;DHT22;7445;50.774;4.944;2023-08-30T16:57:36;18.40;24.60
14709;DHT22;7445;50.774;4.944;2023-08-30T17:00:02;18.40;1.00
14709;DHT22;7445;50.774;4.944;2023-08-30T17:02:30;18.30;99.90
14709;DHT22;7445;50.774;4.944;2023-08-30T17:04:56;18.20;1.00
14709;DHT22;7445;50.774;4.944;2023-08-30T17:07:21;18.10;99.90
14709;DHT22;7445;50.774;4.944;2023-08-30T17:09:47;17.90;1.00
14709;DHT22;7445;50.774;4.944;2023-08-30T17:12:13;17.80;99.90
14709;DHT22;7445;50.774;4.944;2023-08-30T17:14:38;17.70;1.00
14709;DHT22;7445;50.774;4.944;2023-08-30T17:17:04;17.60;1.00
14709;DHT22;7445;50.774;4.944;2023-08-30T17:19:29;17.50;42.10
14709;DHT22;7445;50.774;4.944;2023-08-30T17:21:55;17.60;99.90
14709;DHT22;7445;50.774;4.944;2023-08-30T17:24:21;17.50;1.00
14709;DHT22;7445;50.774;4.944;2023-08-30T17:26:47;17.50;1.00
14709;DHT22;7445;50.774;4.944;2023-08-30T17:29:13;17.40;7.80
14709;DHT22;7445;50.774;4.944;2023-08-30T17:31:41;17.40;99.90
14709;DHT22;7445;50.774;4.944;2023-08-30T17:34:06;17.30;1.00
14709;DHT22;7445;50.774;4.944;2023-08-30T17:36:32;17.40;99.90
14709;DHT22;7445;50.774;4.944;2023-08-30T17:38:58;17.40;99.90
14709;DHT22;7445;50.774;4.944;2023-08-30T17:41:24;17.30;1.00
14709;DHT22;7445;50.774;4.944;2023-08-30T17:43:49;17.30;99.90
14709;DHT22;7445;50.774;4.944;2023-08-30T17:46:16;17.30;99.90
14709;DHT22;7445;50.774;4.944;2023-08-30T17:48:42;17.20;1.00
14709;DHT22;7445;50.774;4.944;2023-08-30T17:51:09;17.20;1.00
14709;DHT22;7445;50.774;4.944;2023-08-30T17:53:35;17.10;99.90
14709;DHT22;7445;50.774;4.944;2023-08-30T17:56:01;17.10;1.00
14709;DHT22;7445;50.774;4.944;2023-08-30T17:58:27;17.00;1.00
14709;DHT22;7445;50.774;4.944;2023-08-30T18:00:53;17.00;99.90
14709;DHT22;7445;50.774;4.944;2023-08-30T18:03:22;17.00;99.90
14709;DHT22;7445;50.774;4.944;2023-08-30T18:05:48;16.90;99.90
14709;DHT22;7445;50.774;4.944;2023-08-30T18:08:15;16.80;1.00
14709;DHT22;7445;50.774;4.944;2023-08-30T18:10:41;16.70;1.00
14709;DHT22;7445;50.774;4.944;2023-08-30T18:13:07;16.60;47.20
14709;DHT22;7445;50.774;4.944;2023-08-30T18:15:36;16.50;26.20
14709;DHT22;7445;50.774;4.944;2023-08-30T18:18:04;16.40;99.90
14709;DHT22;7445;50.774;4.944;2023-08-30T18:20:30;16.30;99.90
14709;DHT22;7445;50.774;4.944;2023-08-30T18:22:56;16.30;99.90
14709;DHT22;7445;50.774;4.944;2023-08-30T18:25:22;16.20;1.00
14709;DHT22;7445;50.774;4.944;2023-08-30T18:27:47;16.10;99.90
14709;DHT22;7445;50.774;4.944;2023-08-30T18:30:14;16.00;99.90
14709;DHT22;7445;50.774;4.944;2023-08-30T18:32:39;15.90;99.90
14709;DHT22;7445;50.774;4.944;2023-08-30T18:35:05;15.90;99.90
14709;DHT22;7445;50.774;4.944;2023-08-30T18:37:31;15.80;1.00
14709;DHT22;7445;50.774;4.944;2023-08-30T18:39:59;15.80;1.00
14709;DHT22;7445;50.774;4.944;2023-08-30T18:42:25;15.70;1.00
14709;DHT22;7445;50.774;4.944;2023-08-30T18:44:52;15.60;99.90
14709;DHT22;7445;50.774;4.944;2023-08-30T18:47:18;15.50;99.90
14709;DHT22;7445;50.774;4.944;2023-08-30T18:49:50;15.30;1.00
14709;DHT22;7445;50.774;4.944;2023-08-30T18:52:15;15.30;1.00
14709;DHT22;7445;50.774;4.944;2023-08-30T18:54:41;15.30;1.00
14709;DHT22;7445;50.774;4.944;2023-08-30T18:57:13;15.30;1.00
14709;DHT22;7445;50.774;4.944;2023-08-30T18:59:40;15.30;1.00
14709;DHT22;7445;50.774;4.944;2023-08-30T19:02:06;15.10;1.00
14709;DHT22;7445;50.774;4.944;2023-08-30T19:04:33;15.00;1.00
14709;DHT22;7445;50.774;4.944;2023-08-30T19:06:58;14.90;1.00
14709;DHT22;7445;50.774;4.944;2023-08-30T19:09:25;14.80;1.00
14709;DHT22;7445;50.774;4.944;2023-08-30T19:11:51;14.70;1.00
14709;DHT22;7445;50.774;4.944;2023-08-30T19:14:16;14.60;1.00
14709;DHT22;7445;50.774;4.944;2023-08-30T19:16:42;14.70;1.00
14709;DHT22;7445;50.774;4.944;2023-08-30T19:19:08;14.70;99.90
14709;DHT22;7445;50.774;4.944;2023-08-30T19:21:36;14.70;99.90
14709;DHT22;7445;50.774;4.944;2023-08-30T19:24:02;14.70;99.90
14709;DHT22;7445;50.774;4.944;2023-08-30T19:26:29;14.70;99.90
14709;DHT22;7445;50.774;4.944;2023-08-30T19:28:55;14.70;1.00
14709;DHT22;7445;50.774;4.944;2023-08-30T19:31:21;14.70;1.00
14709;DHT22;7445;50.774;4.944;2023-08-30T19:33:47;14.70;99.90
14709;DHT22;7445;50.774;4.944;2023-08-30T19:36:13;14.70;1.00
14709;DHT22;7445;50.774;4.944;2023-08-30T19:38:50;14.70;81.30
14709;DHT22;7445;50.774;4.944;2023-08-30T19:41:16;14.70;99.90
14709;DHT22;7445;50.774;4.944;2023-08-30T19:43:43;14.60;99.90
14709;DHT22;7445;50.774;4.944;2023-08-30T19:46:08;14.70;99.90
14709;DHT22;7445;50.774;4.944;2023-08-30T19:48:34;14.60;60.10
14709;DHT22;7445;50.774;4.944;2023-08-30T19:51:00;14.60;1.00
14709;DHT22;7445;50.774;4.944;2023-08-30T19:53:27;14.50;1.00
14709;DHT22;7445;50.774;4.944;2023-08-30T19:55:53;14.40;1.00
14709;DHT22;7445;50.774;4.944;2023-08-30T19:58:21;14.40;48.10
14709;DHT22;7445;50.774;4.944;2023-08-30T20:00:50;14.40;1.00
14709;DHT22;7445;50.774;4.944;2023-08-30T20:03:17;14.40;12.90
14709;DHT22;7445;50.774;4.944;2023-08-30T20:05:49;14.40;99.90
14709;DHT22;7445;50.774;4.944;2023-08-30T20:08:16;14.30;1.00
14709;DHT22;7445;50.774;4.944;2023-08-30T20:10:42;14.20;1.00
14709;DHT22;7445;50.774;4.944;2023-08-30T20:13:08;14.20;1.00
14709;DHT22;7445;50.774;4.944;2023-08-30T20:15:34;14.10;1.00
14709;DHT22;7445;50.774;4.944;2023-08-30T20:18:00;14.30;99.90
14709;DHT22;7445;50.774;4.944;2023-08-30T20:20:26;14.20;1.00
14709;DHT22;7445;50.774;4.944;2023-08-30T20:22:51;14.10;99.90
14709;DHT22;7445;50.774;4.944;2023-08-30T20:25:17;14.20;36.10
14709;DHT22;7445;50.774;4.944;2023-08-30T20:27:44;14.20;1.00
14709;DHT22;7445;50.774;4.944;2023-08-30T20:30:10;14.30;99.90
14709;DHT22;7445;50.774;4.944;2023-08-30T20:32:36;14.30;99.90
14709;DHT22;7445;50.774;4.944;2023-08-30T20:35:02;14.30;99.90
14709;DHT22;7445;50.774;4.944;2023-08-30T20:37:29;14.30;16.10
14709;DHT22;7445;50.774;4.944;2023-08-30T20:39:58;14.30;99.90
14709;DHT22;7445;50.774;4.944;2023-08-30T20:42:24;14.40;99.90
14709;DHT22;7445;50.774;4.944;2023-08-30T20:44:50;14.40;1.00
14709;DHT22;7445;50.774;4.944;2023-08-30T20:47:15;14.30;99.90
14709;DHT22;7445;50.774;4.944;2023-08-30T20:49:41;14.30;99.90
14709;DHT22;7445;50.774;4.944;2023-08-30T20:52:09;14.40;1.00
14709;DHT22;7445;50.774;4.944;2023-08-30T20:54:35;14.30;1.00
14709;DHT22;7445;50.774;4.944;2023-08-30T20:57:02;14.20;99.90
14709;DHT22;7445;50.774;4.944;2023-08-30T20:59:29;14.20;99.90
14709;DHT22;7445;50.774;4.944;2023-08-30T21:01:55;14.20;1.00
14709;DHT22;7445;50.774;4.944;2023-08-30T21:04:20;14.20;99.90
14709;DHT22;7445;50.774;4.944;2023-08-30T21:06:46;14.20;1.00
14709;DHT22;7445;50.774;4.944;2023-08-30T21:09:12;14.20;1.00
14709;DHT22;7445;50.774;4.944;2023-08-30T21:11:38;14.10;1.00
14709;DHT22;7445;50.774;4.944;2023-08-30T21:14:03;14.10;99.90
14709;DHT22;7445;50.774;4.944;2023-08-30T21:16:29;14.20;99.90
14709;DHT22;7445;50.774;4.944;2023-08-30T21:18:55;14.20;99.90
14709;DHT22;7445;50.774;4.944;2023-08-30T21:21:20;14.10;75.80
